sensor_id;sensor_type;location;lat;lon;timestamp;P1;durP1;ratioP1;P2;durP2;ratioP2
66298;SDS011;53098;47.658;8.578;2022-08-01T00:01:35;3.70;;;1.57;;
66298;SDS011;53098;47.658;8.578;2022-08-01T00:04:00;2.22;;;1.15;;
66298;SDS011;53098;47.658;8.578;2022-08-01T00:06:26;2.58;;;1.27;;
66298;SDS011;53098;47.658;8.578;2022-08-01T00:08:51;4.53;;;1.40;;
66298;SDS011;53098;47.658;8.578;2022-08-01T00:11:16;3.27;;;1.40;;
66298;SDS011;53098;47.658;8.578;2022-08-01T00:13:42;4.30;;;1.70;;
66298;SDS011;53098;47.658;8.578;2022-08-01T00:16:07;6.10;;;1.57;;
66298;SDS011;53098;47.658;8.578;2022-08-01T00:18:32;3.80;;;1.77;;
66298;SDS011;53098;47.658;8.578;2022-08-01T00:20:58;2.43;;;1.13;;
66298;SDS011;53098;47.658;8.578;2022-08-01T00:23:23;5.07;;;1.70;;
66298;SDS011;53098;47.658;8.578;2022-08-01T00:25:48;5.00;;;1.60;;
66298;SDS011;53098;47.658;8.578;2022-08-01T00:28:13;2.30;;;1.20;;
66298;SDS011;53098;47.658;8.578;2022-08-01T00:30:39;5.23;;;1.40;;
66298;SDS011;53098;47.658;8.578;2022-08-01T00:33:04;3.90;;;1.10;;
66298;SDS011;53098;47.658;8.578;2022-08-01T00:35:29;2.67;;;1.20;;
66298;SDS011;53098;47.658;8.578;2022-08-01T00:37:55;2.57;;;1.20;;
66298;SDS011;53098;47.658;8.578;2022-08-01T00:40:20;2.97;;;1.23;;
66298;SDS011;53098;47.658;8.578;2022-08-01T00:42:45;6.33;;;1.20;;
66298;SDS011;53098;47.658;8.578;2022-08-01T00:45:11;4.53;;;1.37;;
66298;SDS011;53098;47.658;8.578;2022-08-01T00:47:36;3.40;;;1.45;;
66298;SDS011;53098;47.658;8.578;2022-08-01T00:50:03;2.70;;;1.27;;
66298;SDS011;53098;47.658;8.578;2022-08-01T00:52:29;5.05;;;1.35;;
66298;SDS011;53098;47.658;8.578;2022-08-01T00:54:54;3.53;;;1.00;;
66298;SDS011;53098;47.658;8.578;2022-08-01T00:57:19;4.45;;;1.13;;
66298;SDS011;53098;47.658;8.578;2022-08-01T00:59:44;3.87;;;1.30;;
66298;SDS011;53098;47.658;8.578;2022-08-01T01:02:10;3.10;;;1.40;;
66298;SDS011;53098;47.658;8.578;2022-08-01T01:04:35;2.22;;;1.15;;
66298;SDS011;53098;47.658;8.578;2022-08-01T01:10:00;3.00;;;1.23;;
66298;SDS011;53098;47.658;8.578;2022-08-01T01:12:36;5.35;;;1.45;;
66298;SDS011;53098;47.658;8.578;2022-08-01T01:20:10;4.72;;;1.23;;
66298;SDS011;53098;47.658;8.578;2022-08-01T01:28:20;2.67;;;1.15;;
66298;SDS011;53098;47.658;8.578;2022-08-01T01:30:52;3.30;;;1.08;;
66298;SDS011;53098;47.658;8.578;2022-08-01T01:33:19;4.90;;;1.10;;
66298;SDS011;53098;47.658;8.578;2022-08-01T01:35:48;2.95;;;1.20;;
66298;SDS011;53098;47.658;8.578;2022-08-01T01:38:18;6.45;;;1.20;;
66298;SDS011;53098;47.658;8.578;2022-08-01T01:40:45;2.97;;;1.20;;
66298;SDS011;53098;47.658;8.578;2022-08-01T01:43:11;3.53;;;1.23;;
66298;SDS011;53098;47.658;8.578;2022-08-01T01:45:37;1.90;;;1.00;;
66298;SDS011;53098;47.658;8.578;2022-08-01T01:48:03;2.20;;;1.20;;
66298;SDS011;53098;47.658;8.578;2022-08-01T01:50:28;3.83;;;1.13;;
66298;SDS011;53098;47.658;8.578;2022-08-01T01:52:53;4.60;;;1.30;;
66298;SDS011;53098;47.658;8.578;2022-08-01T01:55:23;2.05;;;1.20;;
66298;SDS011;53098;47.658;8.578;2022-08-01T01:57:49;6.22;;;1.27;;
66298;SDS011;53098;47.658;8.578;2022-08-01T02:00:15;3.13;;;1.20;;
66298;SDS011;53098;47.658;8.578;2022-08-01T02:02:41;3.13;;;1.25;;
66298;SDS011;53098;47.658;8.578;2022-08-01T02:05:07;3.05;;;1.30;;
66298;SDS011;53098;47.658;8.578;2022-08-01T02:07:33;4.15;;;1.45;;
66298;SDS011;53098;47.658;8.578;2022-08-01T02:09:59;2.28;;;1.42;;
66298;SDS011;53098;47.658;8.578;2022-08-01T02:12:25;3.03;;;1.35;;
66298;SDS011;53098;47.658;8.578;2022-08-01T02:14:52;2.47;;;1.13;;
66298;SDS011;53098;47.658;8.578;2022-08-01T02:17:18;4.32;;;1.05;;
66298;SDS011;53098;47.658;8.578;2022-08-01T02:19:44;1.70;;;1.02;;
66298;SDS011;53098;47.658;8.578;2022-08-01T02:22:18;3.75;;;1.15;;
66298;SDS011;53098;47.658;8.578;2022-08-01T02:25:01;2.70;;;1.23;;
66298;SDS011;53098;47.658;8.578;2022-08-01T02:27:28;4.18;;;1.45;;
66298;SDS011;53098;47.658;8.578;2022-08-01T02:29:58;3.67;;;1.42;;
66298;SDS011;53098;47.658;8.578;2022-08-01T02:32:25;2.63;;;1.48;;
66298;SDS011;53098;47.658;8.578;2022-08-01T02:34:51;3.40;;;1.23;;
66298;SDS011;53098;47.658;8.578;2022-08-01T02:37:18;3.03;;;1.20;;
66298;SDS011;53098;47.658;8.578;2022-08-01T02:39:44;3.40;;;1.30;;
66298;SDS011;53098;47.658;8.578;2022-08-01T02:42:11;2.22;;;1.23;;
66298;SDS011;53098;47.658;8.578;2022-08-01T02:44:39;7.13;;;1.30;;
66298;SDS011;53098;47.658;8.578;2022-08-01T02:47:06;4.15;;;1.48;;
66298;SDS011;53098;47.658;8.578;2022-08-01T02:49:33;2.53;;;1.60;;
66298;SDS011;53098;47.658;8.578;2022-08-01T02:51:59;4.10;;;1.33;;
66298;SDS011;53098;47.658;8.578;2022-08-01T02:54:24;3.38;;;1.35;;
66298;SDS011;53098;47.658;8.578;2022-08-01T02:56:50;2.33;;;1.10;;
66298;SDS011;53098;47.658;8.578;2022-08-01T02:59:17;3.50;;;1.20;;
66298;SDS011;53098;47.658;8.578;2022-08-01T03:01:44;5.70;;;1.20;;
66298;SDS011;53098;47.658;8.578;2022-08-01T03:04:10;2.78;;;1.00;;
66298;SDS011;53098;47.658;8.578;2022-08-01T03:06:36;4.03;;;1.10;;
66298;SDS011;53098;47.658;8.578;2022-08-01T03:09:02;1.98;;;1.17;;
66298;SDS011;53098;47.658;8.578;2022-08-01T03:11:28;3.33;;;1.50;;
66298;SDS011;53098;47.658;8.578;2022-08-01T03:13:55;2.90;;;1.30;;
66298;SDS011;53098;47.658;8.578;2022-08-01T03:16:21;2.67;;;1.10;;
66298;SDS011;53098;47.658;8.578;2022-08-01T03:18:47;3.45;;;1.48;;
66298;SDS011;53098;47.658;8.578;2022-08-01T03:21:13;5.13;;;1.65;;
66298;SDS011;53098;47.658;8.578;2022-08-01T03:23:39;3.75;;;1.65;;
66298;SDS011;53098;47.658;8.578;2022-08-01T03:26:05;4.90;;;1.33;;
66298;SDS011;53098;47.658;8.578;2022-08-01T03:28:31;3.75;;;1.20;;
66298;SDS011;53098;47.658;8.578;2022-08-01T03:30:57;2.33;;;1.23;;
66298;SDS011;53098;47.658;8.578;2022-08-01T03:33:23;2.92;;;1.33;;
66298;SDS011;53098;47.658;8.578;2022-08-01T03:35:49;2.17;;;1.20;;
66298;SDS011;53098;47.658;8.578;2022-08-01T03:38:18;3.67;;;1.40;;
66298;SDS011;53098;47.658;8.578;2022-08-01T03:40:45;2.63;;;1.10;;
66298;SDS011;53098;47.658;8.578;2022-08-01T03:43:14;4.43;;;1.33;;
66298;SDS011;53098;47.658;8.578;2022-08-01T03:45:41;3.25;;;1.25;;
66298;SDS011;53098;47.658;8.578;2022-08-01T03:48:12;5.55;;;1.63;;
66298;SDS011;53098;47.658;8.578;2022-08-01T03:50:39;4.18;;;1.30;;
66298;SDS011;53098;47.658;8.578;2022-08-01T03:53:04;4.35;;;1.50;;
66298;SDS011;53098;47.658;8.578;2022-08-01T03:55:31;2.88;;;1.40;;
66298;SDS011;53098;47.658;8.578;2022-08-01T03:57:57;2.95;;;1.40;;
66298;SDS011;53098;47.658;8.578;2022-08-01T04:00:24;2.53;;;1.13;;
66298;SDS011;53098;47.658;8.578;2022-08-01T04:02:50;3.70;;;1.27;;
66298;SDS011;53098;47.658;8.578;2022-08-01T04:05:16;3.95;;;1.50;;
66298;SDS011;53098;47.658;8.578;2022-08-01T04:07:44;2.15;;;1.38;;
66298;SDS011;53098;47.658;8.578;2022-08-01T04:10:10;2.63;;;1.38;;
66298;SDS011;53098;47.658;8.578;2022-08-01T04:12:36;3.67;;;1.42;;
66298;SDS011;53098;47.658;8.578;2022-08-01T04:15:01;2.90;;;1.20;;
66298;SDS011;53098;47.658;8.578;2022-08-01T04:17:26;2.60;;;1.30;;
66298;SDS011;53098;47.658;8.578;2022-08-01T04:19:52;3.47;;;1.47;;
66298;SDS011;53098;47.658;8.578;2022-08-01T04:22:17;3.33;;;1.47;;
66298;SDS011;53098;47.658;8.578;2022-08-01T04:24:44;4.82;;;1.65;;
66298;SDS011;53098;47.658;8.578;2022-08-01T04:27:13;3.65;;;1.40;;
66298;SDS011;53098;47.658;8.578;2022-08-01T04:29:38;4.13;;;1.40;;
66298;SDS011;53098;47.658;8.578;2022-08-01T04:32:04;3.63;;;1.33;;
66298;SDS011;53098;47.658;8.578;2022-08-01T04:34:31;4.10;;;1.50;;
66298;SDS011;53098;47.658;8.578;2022-08-01T04:36:57;3.92;;;1.30;;
66298;SDS011;53098;47.658;8.578;2022-08-01T04:39:26;4.97;;;1.60;;
66298;SDS011;53098;47.658;8.578;2022-08-01T04:41:51;4.63;;;1.80;;
66298;SDS011;53098;47.658;8.578;2022-08-01T04:44:17;2.55;;;1.33;;
66298;SDS011;53098;47.658;8.578;2022-08-01T04:46:42;3.45;;;1.40;;
66298;SDS011;53098;47.658;8.578;2022-08-01T04:49:08;5.43;;;1.50;;
66298;SDS011;53098;47.658;8.578;2022-08-01T04:51:35;3.33;;;1.55;;
66298;SDS011;53098;47.658;8.578;2022-08-01T04:54:00;3.27;;;1.60;;
66298;SDS011;53098;47.658;8.578;2022-08-01T04:56:25;3.10;;;1.50;;
66298;SDS011;53098;47.658;8.578;2022-08-01T04:58:51;3.00;;;1.42;;
66298;SDS011;53098;47.658;8.578;2022-08-01T05:01:16;5.23;;;1.50;;
66298;SDS011;53098;47.658;8.578;2022-08-01T05:03:42;4.35;;;1.40;;
66298;SDS011;53098;47.658;8.578;2022-08-01T05:06:07;3.03;;;1.60;;
66298;SDS011;53098;47.658;8.578;2022-08-01T05:08:32;4.07;;;1.63;;
66298;SDS011;53098;47.658;8.578;2022-08-01T05:10:57;5.13;;;1.53;;
66298;SDS011;53098;47.658;8.578;2022-08-01T05:13:23;4.20;;;1.58;;
66298;SDS011;53098;47.658;8.578;2022-08-01T05:15:48;2.73;;;1.30;;
66298;SDS011;53098;47.658;8.578;2022-08-01T05:18:13;3.87;;;1.40;;
66298;SDS011;53098;47.658;8.578;2022-08-01T05:20:39;3.73;;;1.77;;
66298;SDS011;53098;47.658;8.578;2022-08-01T05:23:05;3.53;;;1.58;;
66298;SDS011;53098;47.658;8.578;2022-08-01T05:25:30;4.60;;;1.60;;
66298;SDS011;53098;47.658;8.578;2022-08-01T05:27:56;3.20;;;1.60;;
66298;SDS011;53098;47.658;8.578;2022-08-01T05:30:21;6.53;;;1.80;;
66298;SDS011;53098;47.658;8.578;2022-08-01T05:32:46;3.88;;;1.67;;
66298;SDS011;53098;47.658;8.578;2022-08-01T05:35:12;6.03;;;1.75;;
66298;SDS011;53098;47.658;8.578;2022-08-01T05:37:37;2.53;;;1.57;;
66298;SDS011;53098;47.658;8.578;2022-08-01T05:40:03;4.67;;;1.60;;
66298;SDS011;53098;47.658;8.578;2022-08-01T05:42:28;5.25;;;1.83;;
66298;SDS011;53098;47.658;8.578;2022-08-01T05:44:54;3.10;;;1.40;;
66298;SDS011;53098;47.658;8.578;2022-08-01T05:47:19;3.47;;;1.50;;
66298;SDS011;53098;47.658;8.578;2022-08-01T05:49:45;2.57;;;1.40;;
66298;SDS011;53098;47.658;8.578;2022-08-01T05:52:10;6.40;;;1.85;;
66298;SDS011;53098;47.658;8.578;2022-08-01T05:54:36;4.55;;;1.80;;
66298;SDS011;53098;47.658;8.578;2022-08-01T05:57:01;6.70;;;1.83;;
66298;SDS011;53098;47.658;8.578;2022-08-01T05:59:27;4.10;;;1.60;;
66298;SDS011;53098;47.658;8.578;2022-08-01T06:01:52;4.57;;;1.92;;
66298;SDS011;53098;47.658;8.578;2022-08-01T06:04:18;3.47;;;1.63;;
66298;SDS011;53098;47.658;8.578;2022-08-01T06:06:43;3.90;;;1.73;;
66298;SDS011;53098;47.658;8.578;2022-08-01T06:09:08;3.80;;;1.70;;
66298;SDS011;53098;47.658;8.578;2022-08-01T06:11:34;5.53;;;2.00;;
66298;SDS011;53098;47.658;8.578;2022-08-01T06:13:59;5.90;;;1.70;;
66298;SDS011;53098;47.658;8.578;2022-08-01T06:16:24;6.37;;;1.83;;
66298;SDS011;53098;47.658;8.578;2022-08-01T06:18:50;3.53;;;1.65;;
66298;SDS011;53098;47.658;8.578;2022-08-01T06:21:15;3.33;;;1.63;;
66298;SDS011;53098;47.658;8.578;2022-08-01T06:23:40;4.77;;;1.63;;
66298;SDS011;53098;47.658;8.578;2022-08-01T06:26:05;5.33;;;2.00;;
66298;SDS011;53098;47.658;8.578;2022-08-01T06:28:31;2.27;;;1.50;;
66298;SDS011;53098;47.658;8.578;2022-08-01T06:30:56;3.63;;;1.60;;
66298;SDS011;53098;47.658;8.578;2022-08-01T06:33:21;4.23;;;1.83;;
66298;SDS011;53098;47.658;8.578;2022-08-01T06:35:47;4.80;;;2.00;;
66298;SDS011;53098;47.658;8.578;2022-08-01T06:38:12;5.50;;;1.70;;
66298;SDS011;53098;47.658;8.578;2022-08-01T06:40:37;6.47;;;2.17;;
66298;SDS011;53098;47.658;8.578;2022-08-01T06:43:02;5.80;;;2.00;;
66298;SDS011;53098;47.658;8.578;2022-08-01T06:45:28;5.37;;;1.90;;
66298;SDS011;53098;47.658;8.578;2022-08-01T06:47:53;3.92;;;1.88;;
66298;SDS011;53098;47.658;8.578;2022-08-01T06:50:19;6.63;;;2.00;;
66298;SDS011;53098;47.658;8.578;2022-08-01T06:52:44;4.10;;;1.90;;
66298;SDS011;53098;47.658;8.578;2022-08-01T06:55:09;5.07;;;2.13;;
66298;SDS011;53098;47.658;8.578;2022-08-01T06:57:35;4.97;;;2.00;;
66298;SDS011;53098;47.658;8.578;2022-08-01T07:00:04;5.85;;;1.92;;
66298;SDS011;53098;47.658;8.578;2022-08-01T07:02:29;7.38;;;2.13;;
66298;SDS011;53098;47.658;8.578;2022-08-01T07:04:55;4.47;;;1.80;;
66298;SDS011;53098;47.658;8.578;2022-08-01T07:07:20;5.67;;;2.37;;
66298;SDS011;53098;47.658;8.578;2022-08-01T07:09:45;4.67;;;2.00;;
66298;SDS011;53098;47.658;8.578;2022-08-01T07:12:10;5.00;;;2.00;;
66298;SDS011;53098;47.658;8.578;2022-08-01T07:14:36;6.30;;;2.00;;
66298;SDS011;53098;47.658;8.578;2022-08-01T07:17:01;4.93;;;1.80;;
66298;SDS011;53098;47.658;8.578;2022-08-01T07:19:27;4.78;;;2.42;;
66298;SDS011;53098;47.658;8.578;2022-08-01T07:21:52;5.63;;;2.20;;
66298;SDS011;53098;47.658;8.578;2022-08-01T07:24:17;7.07;;;2.30;;
66298;SDS011;53098;47.658;8.578;2022-08-01T07:26:44;5.13;;;2.23;;
66298;SDS011;53098;47.658;8.578;2022-08-01T07:29:09;5.07;;;2.58;;
66298;SDS011;53098;47.658;8.578;2022-08-01T07:31:35;4.55;;;2.00;;
66298;SDS011;53098;47.658;8.578;2022-08-01T07:34:00;4.72;;;2.33;;
66298;SDS011;53098;47.658;8.578;2022-08-01T07:36:25;6.50;;;2.37;;
66298;SDS011;53098;47.658;8.578;2022-08-01T07:38:50;3.65;;;1.85;;
66298;SDS011;53098;47.658;8.578;2022-08-01T07:41:16;5.60;;;2.10;;
66298;SDS011;53098;47.658;8.578;2022-08-01T07:43:41;5.90;;;2.07;;
66298;SDS011;53098;47.658;8.578;2022-08-01T07:46:06;7.67;;;2.40;;
66298;SDS011;53098;47.658;8.578;2022-08-01T07:48:32;5.38;;;2.13;;
66298;SDS011;53098;47.658;8.578;2022-08-01T07:50:57;4.43;;;2.20;;
66298;SDS011;53098;47.658;8.578;2022-08-01T07:53:22;5.00;;;2.20;;
66298;SDS011;53098;47.658;8.578;2022-08-01T07:55:48;8.60;;;2.42;;
66298;SDS011;53098;47.658;8.578;2022-08-01T07:58:14;5.32;;;2.45;;
66298;SDS011;53098;47.658;8.578;2022-08-01T08:00:39;5.15;;;2.13;;
66298;SDS011;53098;47.658;8.578;2022-08-01T08:03:05;3.97;;;2.20;;
66298;SDS011;53098;47.658;8.578;2022-08-01T08:05:31;4.15;;;2.13;;
66298;SDS011;53098;47.658;8.578;2022-08-01T08:07:56;5.13;;;2.22;;
66298;SDS011;53098;47.658;8.578;2022-08-01T08:10:21;7.40;;;2.30;;
66298;SDS011;53098;47.658;8.578;2022-08-01T08:12:46;4.67;;;2.00;;
66298;SDS011;53098;47.658;8.578;2022-08-01T08:15:12;4.70;;;2.10;;
66298;SDS011;53098;47.658;8.578;2022-08-01T08:17:37;6.75;;;2.50;;
66298;SDS011;53098;47.658;8.578;2022-08-01T08:20:03;6.97;;;2.90;;
66298;SDS011;53098;47.658;8.578;2022-08-01T08:22:29;7.72;;;2.40;;
66298;SDS011;53098;47.658;8.578;2022-08-01T08:24:54;3.93;;;1.87;;
66298;SDS011;53098;47.658;8.578;2022-08-01T08:27:19;4.70;;;1.90;;
66298;SDS011;53098;47.658;8.578;2022-08-01T08:29:45;7.47;;;2.70;;
66298;SDS011;53098;47.658;8.578;2022-08-01T08:32:10;8.40;;;2.10;;
66298;SDS011;53098;47.658;8.578;2022-08-01T08:34:35;6.40;;;2.25;;
66298;SDS011;53098;47.658;8.578;2022-08-01T08:37:01;3.93;;;2.00;;
66298;SDS011;53098;47.658;8.578;2022-08-01T08:39:26;5.13;;;2.25;;
66298;SDS011;53098;47.658;8.578;2022-08-01T08:41:51;4.47;;;2.00;;
66298;SDS011;53098;47.658;8.578;2022-08-01T08:44:17;9.07;;;2.03;;
66298;SDS011;53098;47.658;8.578;2022-08-01T08:46:43;5.18;;;2.13;;
66298;SDS011;53098;47.658;8.578;2022-08-01T08:49:10;4.85;;;2.13;;
66298;SDS011;53098;47.658;8.578;2022-08-01T08:51:39;5.32;;;2.17;;
66298;SDS011;53098;47.658;8.578;2022-08-01T08:54:06;5.32;;;2.42;;
66298;SDS011;53098;47.658;8.578;2022-08-01T08:56:32;6.18;;;2.10;;
66298;SDS011;53098;47.658;8.578;2022-08-01T08:58:59;6.43;;;2.40;;
66298;SDS011;53098;47.658;8.578;2022-08-01T09:01:24;4.75;;;2.22;;
66298;SDS011;53098;47.658;8.578;2022-08-01T09:03:50;4.75;;;1.88;;
66298;SDS011;53098;47.658;8.578;2022-08-01T09:06:15;4.43;;;2.10;;
66298;SDS011;53098;47.658;8.578;2022-08-01T09:08:41;4.78;;;1.80;;
66298;SDS011;53098;47.658;8.578;2022-08-01T09:11:06;7.93;;;2.00;;
66298;SDS011;53098;47.658;8.578;2022-08-01T09:13:31;6.22;;;2.40;;
66298;SDS011;53098;47.658;8.578;2022-08-01T09:15:57;4.78;;;1.98;;
66298;SDS011;53098;47.658;8.578;2022-08-01T09:18:26;4.95;;;1.92;;
66298;SDS011;53098;47.658;8.578;2022-08-01T09:20:52;4.03;;;1.90;;
66298;SDS011;53098;47.658;8.578;2022-08-01T09:23:30;5.65;;;2.30;;
66298;SDS011;53098;47.658;8.578;2022-08-01T09:25:56;4.85;;;2.15;;
66298;SDS011;53098;47.658;8.578;2022-08-01T09:28:26;4.78;;;2.05;;
66298;SDS011;53098;47.658;8.578;2022-08-01T09:30:51;4.70;;;1.98;;
66298;SDS011;53098;47.658;8.578;2022-08-01T09:33:17;4.78;;;2.00;;
66298;SDS011;53098;47.658;8.578;2022-08-01T09:35:42;4.70;;;2.13;;
66298;SDS011;53098;47.658;8.578;2022-08-01T09:38:12;5.63;;;1.97;;
66298;SDS011;53098;47.658;8.578;2022-08-01T09:40:44;3.95;;;2.05;;
66298;SDS011;53098;47.658;8.578;2022-08-01T09:43:10;6.47;;;1.90;;
66298;SDS011;53098;47.658;8.578;2022-08-01T09:45:35;4.47;;;2.10;;
66298;SDS011;53098;47.658;8.578;2022-08-01T09:48:05;3.75;;;2.05;;
66298;SDS011;53098;47.658;8.578;2022-08-01T09:50:38;4.18;;;2.05;;
66298;SDS011;53098;47.658;8.578;2022-08-01T09:53:03;5.78;;;1.98;;
66298;SDS011;53098;47.658;8.578;2022-08-01T09:55:29;4.63;;;2.00;;
66298;SDS011;53098;47.658;8.578;2022-08-01T09:57:55;7.13;;;2.50;;
66298;SDS011;53098;47.658;8.578;2022-08-01T10:00:20;5.80;;;1.92;;
66298;SDS011;53098;47.658;8.578;2022-08-01T10:02:46;3.57;;;1.60;;
66298;SDS011;53098;47.658;8.578;2022-08-01T10:05:11;6.13;;;1.90;;
66298;SDS011;53098;47.658;8.578;2022-08-01T10:10:19;4.47;;;1.92;;
66298;SDS011;53098;47.658;8.578;2022-08-01T10:12:44;6.93;;;2.10;;
66298;SDS011;53098;47.658;8.578;2022-08-01T10:15:10;2.53;;;1.38;;
66298;SDS011;53098;47.658;8.578;2022-08-01T10:17:37;3.22;;;1.70;;
66298;SDS011;53098;47.658;8.578;2022-08-01T10:20:03;4.60;;;1.70;;
66298;SDS011;53098;47.658;8.578;2022-08-01T10:22:30;4.40;;;1.60;;
66298;SDS011;53098;47.658;8.578;2022-08-01T10:24:56;5.20;;;1.65;;
66298;SDS011;53098;47.658;8.578;2022-08-01T10:27:21;4.53;;;1.70;;
66298;SDS011;53098;47.658;8.578;2022-08-01T10:32:19;3.75;;;1.70;;
66298;SDS011;53098;47.658;8.578;2022-08-01T10:34:44;3.70;;;1.70;;
66298;SDS011;53098;47.658;8.578;2022-08-01T10:37:10;5.88;;;1.67;;
66298;SDS011;53098;47.658;8.578;2022-08-01T10:39:37;5.15;;;1.95;;
66298;SDS011;53098;47.658;8.578;2022-08-01T10:42:04;6.47;;;1.73;;
66298;SDS011;53098;47.658;8.578;2022-08-01T10:44:31;4.53;;;1.60;;
66298;SDS011;53098;47.658;8.578;2022-08-01T10:47:08;6.00;;;1.80;;
66298;SDS011;53098;47.658;8.578;2022-08-01T10:49:34;3.95;;;1.38;;
66298;SDS011;53098;47.658;8.578;2022-08-01T10:52:02;3.58;;;1.40;;
66298;SDS011;53098;47.658;8.578;2022-08-01T10:54:27;5.05;;;1.60;;
66298;SDS011;53098;47.658;8.578;2022-08-01T10:56:53;3.77;;;1.50;;
66298;SDS011;53098;47.658;8.578;2022-08-01T11:01:59;2.67;;;1.25;;
66298;SDS011;53098;47.658;8.578;2022-08-01T11:04:41;2.75;;;1.23;;
66298;SDS011;53098;47.658;8.578;2022-08-01T11:07:21;2.65;;;1.27;;
66298;SDS011;53098;47.658;8.578;2022-08-01T11:09:47;1.83;;;0.80;;
66298;SDS011;53098;47.658;8.578;2022-08-01T11:12:14;1.63;;;0.80;;
66298;SDS011;53098;47.658;8.578;2022-08-01T11:17:56;1.83;;;0.93;;
66298;SDS011;53098;47.658;8.578;2022-08-01T11:20:15;4.85;;;1.02;;
66298;SDS011;53098;47.658;8.578;2022-08-01T11:23:24;2.38;;;0.95;;
66298;SDS011;53098;47.658;8.578;2022-08-01T11:30:48;1.50;;;0.80;;
66298;SDS011;53098;47.658;8.578;2022-08-01T11:33:14;3.08;;;1.23;;
66298;SDS011;53098;47.658;8.578;2022-08-01T11:38:24;2.03;;;0.90;;
66298;SDS011;53098;47.658;8.578;2022-08-01T11:46:18;3.55;;;0.80;;
66298;SDS011;53098;47.658;8.578;2022-08-01T11:48:44;1.53;;;0.83;;
66298;SDS011;53098;47.658;8.578;2022-08-01T11:51:09;2.08;;;1.00;;
66298;SDS011;53098;47.658;8.578;2022-08-01T11:53:46;2.03;;;1.00;;
66298;SDS011;53098;47.658;8.578;2022-08-01T11:56:11;2.92;;;0.60;;
66298;SDS011;53098;47.658;8.578;2022-08-01T11:58:37;2.22;;;0.80;;
66298;SDS011;53098;47.658;8.578;2022-08-01T12:01:02;2.20;;;0.97;;
66298;SDS011;53098;47.658;8.578;2022-08-01T12:03:28;3.47;;;0.93;;
66298;SDS011;53098;47.658;8.578;2022-08-01T12:05:54;1.30;;;0.73;;
66298;SDS011;53098;47.658;8.578;2022-08-01T12:08:27;3.17;;;0.90;;
66298;SDS011;53098;47.658;8.578;2022-08-01T12:10:52;2.28;;;0.93;;
66298;SDS011;53098;47.658;8.578;2022-08-01T12:13:17;2.55;;;0.70;;
66298;SDS011;53098;47.658;8.578;2022-08-01T12:15:43;3.78;;;0.82;;
66298;SDS011;53098;47.658;8.578;2022-08-01T12:18:09;1.55;;;0.60;;
66298;SDS011;53098;47.658;8.578;2022-08-01T12:20:35;2.30;;;0.57;;
66298;SDS011;53098;47.658;8.578;2022-08-01T12:23:07;1.27;;;0.43;;
66298;SDS011;53098;47.658;8.578;2022-08-01T12:25:34;0.80;;;0.40;;
66298;SDS011;53098;47.658;8.578;2022-08-01T12:28:03;2.88;;;0.73;;
66298;SDS011;53098;47.658;8.578;2022-08-01T12:30:29;6.78;;;1.00;;
66298;SDS011;53098;47.658;8.578;2022-08-01T12:32:54;2.50;;;0.75;;
66298;SDS011;53098;47.658;8.578;2022-08-01T12:35:20;2.45;;;0.60;;
66298;SDS011;53098;47.658;8.578;2022-08-01T12:37:47;1.95;;;0.60;;
66298;SDS011;53098;47.658;8.578;2022-08-01T12:42:45;0.43;;;0.43;;
66298;SDS011;53098;47.658;8.578;2022-08-01T12:45:12;2.10;;;1.00;;
66298;SDS011;53098;47.658;8.578;2022-08-01T12:47:38;1.60;;;0.77;;
66298;SDS011;53098;47.658;8.578;2022-08-01T12:50:05;2.33;;;0.80;;
66298;SDS011;53098;47.658;8.578;2022-08-01T12:52:31;1.95;;;0.70;;
66298;SDS011;53098;47.658;8.578;2022-08-01T12:55:41;2.40;;;0.90;;
66298;SDS011;53098;47.658;8.578;2022-08-01T12:57:46;4.07;;;1.00;;
66298;SDS011;53098;47.658;8.578;2022-08-01T13:00:19;1.98;;;0.75;;
66298;SDS011;53098;47.658;8.578;2022-08-01T13:02:45;1.92;;;0.80;;
66298;SDS011;53098;47.658;8.578;2022-08-01T13:05:11;2.65;;;0.63;;
66298;SDS011;53098;47.658;8.578;2022-08-01T13:07:41;5.07;;;1.00;;
66298;SDS011;53098;47.658;8.578;2022-08-01T13:10:07;1.98;;;0.75;;
66298;SDS011;53098;47.658;8.578;2022-08-01T13:12:32;0.70;;;0.47;;
66298;SDS011;53098;47.658;8.578;2022-08-01T13:14:58;3.05;;;0.70;;
66298;SDS011;53098;47.658;8.578;2022-08-01T13:17:30;1.70;;;1.05;;
66298;SDS011;53098;47.658;8.578;2022-08-01T13:19:55;1.95;;;0.95;;
66298;SDS011;53098;47.658;8.578;2022-08-01T13:22:21;1.93;;;0.70;;
66298;SDS011;53098;47.658;8.578;2022-08-01T13:25:08;2.08;;;0.90;;
66298;SDS011;53098;47.658;8.578;2022-08-01T13:27:33;3.33;;;1.15;;
66298;SDS011;53098;47.658;8.578;2022-08-01T13:30:09;2.03;;;0.70;;
66298;SDS011;53098;47.658;8.578;2022-08-01T13:32:35;3.88;;;1.00;;
66298;SDS011;53098;47.658;8.578;2022-08-01T13:35:04;3.40;;;1.00;;
66298;SDS011;53098;47.658;8.578;2022-08-01T13:37:29;1.98;;;0.65;;
66298;SDS011;53098;47.658;8.578;2022-08-01T13:39:54;1.67;;;0.83;;
66298;SDS011;53098;47.658;8.578;2022-08-01T13:42:20;3.50;;;0.90;;
66298;SDS011;53098;47.658;8.578;2022-08-01T13:44:45;1.30;;;0.65;;
66298;SDS011;53098;47.658;8.578;2022-08-01T13:47:11;2.15;;;0.80;;
66298;SDS011;53098;47.658;8.578;2022-08-01T13:49:36;1.38;;;0.65;;
66298;SDS011;53098;47.658;8.578;2022-08-01T13:52:02;3.17;;;0.85;;
66298;SDS011;53098;47.658;8.578;2022-08-01T13:54:27;2.10;;;0.82;;
66298;SDS011;53098;47.658;8.578;2022-08-01T13:56:52;3.13;;;0.93;;
66298;SDS011;53098;47.658;8.578;2022-08-01T13:59:18;1.27;;;0.43;;
66298;SDS011;53098;47.658;8.578;2022-08-01T14:01:43;2.78;;;0.68;;
66298;SDS011;53098;47.658;8.578;2022-08-01T14:04:09;1.25;;;0.50;;
66298;SDS011;53098;47.658;8.578;2022-08-01T14:06:34;2.45;;;0.68;;
66298;SDS011;53098;47.658;8.578;2022-08-01T14:08:59;0.77;;;0.40;;
66298;SDS011;53098;47.658;8.578;2022-08-01T14:11:25;1.80;;;0.50;;
66298;SDS011;53098;47.658;8.578;2022-08-01T14:13:50;0.23;;;0.23;;
66298;SDS011;53098;47.658;8.578;2022-08-01T14:16:16;0.43;;;0.37;;
66298;SDS011;53098;47.658;8.578;2022-08-01T14:18:41;0.68;;;0.50;;
66298;SDS011;53098;47.658;8.578;2022-08-01T14:21:06;1.07;;;0.50;;
66298;SDS011;53098;47.658;8.578;2022-08-01T14:23:32;1.27;;;0.50;;
66298;SDS011;53098;47.658;8.578;2022-08-01T14:25:57;0.83;;;0.60;;
66298;SDS011;53098;47.658;8.578;2022-08-01T14:28:22;0.53;;;0.33;;
66298;SDS011;53098;47.658;8.578;2022-08-01T14:30:47;0.30;;;0.30;;
66298;SDS011;53098;47.658;8.578;2022-08-01T14:33:13;2.13;;;0.50;;
66298;SDS011;53098;47.658;8.578;2022-08-01T14:35:39;1.00;;;0.38;;
66298;SDS011;53098;47.658;8.578;2022-08-01T14:38:04;3.50;;;0.45;;
66298;SDS011;53098;47.658;8.578;2022-08-01T14:40:29;0.85;;;0.63;;
66298;SDS011;53098;47.658;8.578;2022-08-01T14:42:55;1.97;;;0.40;;
66298;SDS011;53098;47.658;8.578;2022-08-01T14:45:20;0.53;;;0.50;;
66298;SDS011;53098;47.658;8.578;2022-08-01T14:47:45;1.10;;;0.60;;
66298;SDS011;53098;47.658;8.578;2022-08-01T14:50:12;1.17;;;0.47;;
66298;SDS011;53098;47.658;8.578;2022-08-01T14:52:37;2.13;;;0.57;;
66298;SDS011;53098;47.658;8.578;2022-08-01T14:55:04;2.03;;;0.60;;
66298;SDS011;53098;47.658;8.578;2022-08-01T14:57:29;2.97;;;0.68;;
66298;SDS011;53098;47.658;8.578;2022-08-01T14:59:55;1.42;;;0.60;;
66298;SDS011;53098;47.658;8.578;2022-08-01T15:02:20;1.83;;;0.65;;
66298;SDS011;53098;47.658;8.578;2022-08-01T15:04:46;1.08;;;0.80;;
66298;SDS011;53098;47.658;8.578;2022-08-01T15:07:11;1.92;;;0.60;;
66298;SDS011;53098;47.658;8.578;2022-08-01T15:09:37;1.83;;;0.70;;
66298;SDS011;53098;47.658;8.578;2022-08-01T15:12:02;0.73;;;0.65;;
66298;SDS011;53098;47.658;8.578;2022-08-01T15:14:28;2.45;;;0.90;;
66298;SDS011;53098;47.658;8.578;2022-08-01T15:16:53;1.43;;;0.80;;
66298;SDS011;53098;47.658;8.578;2022-08-01T15:19:18;1.77;;;0.80;;
66298;SDS011;53098;47.658;8.578;2022-08-01T15:21:43;3.50;;;0.80;;
66298;SDS011;53098;47.658;8.578;2022-08-01T15:24:09;2.03;;;0.90;;